Time;durP1;ratioP1;P1;durP2;ratioP2;P2;SDS_P1;SDS_P2;PMS_P1;PMS_P2;Temp;Humidity;BMP_temperature;BMP_pressure;BME280_temperature;BME280_humidity;BME280_pressure;Samples;Min_cycle;Max_cycle;Signal;HPM_P1;HPM_P2
2022/10/17 00:00:41;;;;;;;16.67;6.65;;;10.90;99.90;;;;;;5049818;28;20071;-72
2022/10/17 00:03:07;;;;;;;15.75;6.60;;;10.90;99.90;;;;;;5050389;28;20040;-71
2022/10/17 00:05:33;;;;;;;20.33;7.00;;;11.00;99.90;;;;;;5051891;28;20454;-72
2022/10/17 00:07:58;;;;;;;17.40;6.70;;;10.80;99.90;;;;;;5036788;28;20048;-72
2022/10/17 00:10:24;;;;;;;12.07;6.20;;;10.70;99.90;;;;;;5054294;28;20048;-72
2022/10/17 00:12:51;;;;;;;13.75;6.45;;;10.80;99.90;;;;;;5049182;28;20044;-72
2022/10/17 00:15:18;;;;;;;16.08;7.57;;;10.80;99.90;;;;;;5049826;28;20045;-72
2022/10/17 00:17:44;;;;;;;15.43;6.97;;;10.80;99.90;;;;;;5034942;28;20049;-72
2022/10/17 00:20:11;;;;;;;15.50;6.60;;;10.80;99.90;;;;;;5049580;28;20139;-71
2022/10/17 00:22:37;;;;;;;15.05;6.78;;;10.80;99.90;;;;;;5034987;28;20049;-72
2022/10/17 00:25:03;;;;;;;17.02;7.65;;;10.70;99.90;;;;;;5050521;28;20053;-72
2022/10/17 00:27:28;;;;;;;14.93;7.43;;;10.80;99.90;;;;;;5033217;28;20052;-72
2022/10/17 00:29:54;;;;;;;18.30;6.63;;;10.80;99.90;;;;;;5049790;28;20063;-72
2022/10/17 00:32:20;;;;;;;18.40;7.47;;;10.80;99.90;;;;;;5051251;28;20183;-72
2022/10/17 00:34:46;;;;;;;15.90;7.18;;;10.80;99.90;;;;;;5053611;28;20041;-72
2022/10/17 00:37:11;;;;;;;13.07;6.90;;;10.80;99.90;;;;;;5038195;28;20049;-72
2022/10/17 00:39:37;;;;;;;15.60;7.63;;;10.80;99.90;;;;;;5052414;28;20057;-72
2022/10/17 00:42:03;;;;;;;12.55;6.85;;;10.70;99.90;;;;;;5052339;28;20659;-72
2022/10/17 00:44:29;;;;;;;15.65;6.97;;;10.70;99.90;;;;;;5054839;28;20045;-72
2022/10/17 00:46:56;;;;;;;14.32;5.32;;;10.70;99.90;;;;;;5039393;28;20470;-72
2022/10/17 00:49:24;;;;;;;15.48;5.15;;;10.80;99.90;;;;;;5053538;28;20086;-72
2022/10/17 00:52:14;;;;;;;17.10;4.68;;;10.80;99.90;;;;;;5050178;28;20057;-72
2022/10/17 00:54:47;;;;;;;13.55;4.00;;;10.90;99.90;;;;;;5048563;28;20053;-72
2022/10/17 00:57:14;;;;;;;14.32;4.38;;;11.00;99.90;;;;;;5036662;28;20049;-72
2022/10/17 00:59:42;;;;;;;16.20;4.30;;;11.10;99.90;;;;;;5047386;28;20143;-72
2022/10/17 01:02:15;;;;;;;13.45;4.28;;;11.00;99.90;;;;;;5051730;28;20489;-71
2022/10/17 01:04:43;;;;;;;11.10;4.65;;;11.10;99.90;;;;;;5057485;28;20036;-72
2022/10/17 01:07:09;;;;;;;9.48;4.75;;;11.30;99.90;;;;;;5036351;28;20053;-71
2022/10/17 01:09:36;;;;;;;11.55;5.05;;;11.10;99.90;;;;;;5051525;28;20053;-72
2022/10/17 01:12:22;;;;;;;11.35;5.53;;;11.10;99.90;;;;;;5049498;28;20074;-71
2022/10/17 01:15:03;;;;;;;17.23;6.97;;;11.20;99.90;;;;;;5052375;28;20156;-72
2022/10/17 01:17:46;;;;;;;21.52;11.95;;;11.20;99.90;;;;;;5034126;28;20045;-73
2022/10/17 01:20:50;;;;;;;23.10;13.95;;;11.30;99.90;;;;;;5051286;28;20049;-72
2022/10/17 01:23:53;;;;;;;26.42;13.25;;;11.40;99.90;;;;;;5051735;28;20411;-72
2022/10/17 01:26:52;;;;;;;22.20;10.38;;;11.50;99.90;;;;;;5041014;28;20087;-72
2022/10/17 01:29:37;;;;;;;19.80;8.75;;;11.40;99.90;;;;;;5053792;28;20052;-73
2022/10/17 01:33:13;;;;;;;16.35;8.20;;;11.30;99.90;;;;;;5049184;28;20049;-72
2022/10/17 01:35:46;;;;;;;16.70;8.10;;;11.30;99.90;;;;;;4950380;28;20050;-72
2022/10/17 01:38:25;;;;;;;15.35;7.82;;;11.40;99.90;;;;;;4951946;28;20518;-72
2022/10/17 01:40:55;;;;;;;20.55;6.40;;;11.30;99.90;;;;;;5006329;28;20053;-72
2022/10/17 01:43:33;;;;;;;15.20;6.05;;;11.40;99.90;;;;;;5039714;28;20117;-72
2022/10/17 01:46:09;;;;;;;10.13;5.53;;;11.50;99.90;;;;;;5051652;28;20040;-72
2022/10/17 01:48:37;;;;;;;13.48;5.97;;;11.60;99.90;;;;;;5039120;28;20112;-72
2022/10/17 01:51:11;;;;;;;11.15;5.60;;;11.80;99.90;;;;;;5051484;28;20636;-72
2022/10/17 01:53:44;;;;;;;11.90;7.20;;;11.80;99.90;;;;;;5049866;28;20828;-72
2022/10/17 01:56:13;;;;;;;16.20;9.60;;;11.90;99.90;;;;;;5041882;28;20045;-72
2022/10/17 01:59:18;;;;;;;16.27;9.20;;;11.90;99.90;;;;;;5042919;28;20037;-72
2022/10/17 02:01:48;;;;;;;14.05;6.47;;;12.00;99.90;;;;;;5021418;28;20057;-72
2022/10/17 02:04:15;;;;;;;11.15;6.50;;;12.10;99.90;;;;;;5049847;28;20139;-72
2022/10/17 02:06:40;;;;;;;14.70;6.50;;;12.10;99.90;;;;;;5036715;28;20057;-72
2022/10/17 02:09:20;;;;;;;15.63;6.85;;;12.10;99.90;;;;;;5045806;28;20044;-72
2022/10/17 02:12:23;;;;;;;16.20;8.00;;;12.10;99.90;;;;;;5046384;28;20041;-72
2022/10/17 02:15:14;;;;;;;17.60;8.40;;;12.10;99.90;;;;;;5049543;28;20045;-72
2022/10/17 02:18:11;;;;;;;12.25;7.60;;;12.10;99.90;;;;;;5033093;28;20151;-72
2022/10/17 02:20:49;;;;;;;10.70;6.53;;;12.10;99.90;;;;;;5050006;28;20045;-72
2022/10/17 02:23:23;;;;;;;13.02;6.07;;;12.20;99.90;;;;;;5049814;28;20159;-72
2022/10/17 02:26:15;;;;;;;10.60;5.53;;;12.20;99.90;;;;;;5051866;28;20074;-72
2022/10/17 02:29:05;;;;;;;11.02;5.05;;;12.10;99.90;;;;;;5012280;28;20053;-72
2022/10/17 02:31:39;;;;;;;11.45;5.32;;;12.20;99.90;;;;;;5052110;28;20705;-72
2022/10/17 02:34:12;;;;;;;16.42;6.80;;;12.20;99.90;;;;;;5049820;28;20045;-72
2022/10/17 02:36:42;;;;;;;12.77;7.40;;;12.20;99.90;;;;;;5036182;28;20103;-72
2022/10/17 02:39:10;;;;;;;14.00;7.82;;;12.10;99.90;;;;;;5049398;28;20044;-72
2022/10/17 02:41:37;;;;;;;15.07;7.57;;;12.10;99.90;;;;;;5049113;28;20056;-72
2022/10/17 02:44:04;;;;;;;9.73;6.43;;;12.10;99.90;;;;;;5047772;28;20593;-72
2022/10/17 02:46:31;;;;;;;12.55;6.85;;;12.10;99.90;;;;;;5039761;28;20521;-72
2022/10/17 02:49:09;;;;;;;10.80;6.38;;;12.10;99.90;;;;;;5051597;28;20078;-72
2022/10/17 02:51:55;;;;;;;13.43;6.40;;;12.10;99.90;;;;;;5045163;28;20456;-72
2022/10/17 02:54:46;;;;;;;13.40;6.35;;;12.10;99.90;;;;;;5036418;28;20705;-72
2022/10/17 02:57:37;;;;;;;15.88;6.82;;;12.10;99.90;;;;;;5032698;28;20056;-72
2022/10/17 03:00:06;;;;;;;11.50;6.63;;;12.10;99.90;;;;;;5046444;28;20502;-72
2022/10/17 03:02:40;;;;;;;12.27;7.15;;;12.10;99.90;;;;;;5050958;28;20048;-72
2022/10/17 03:05:07;;;;;;;12.07;6.68;;;12.00;99.90;;;;;;5054408;28;20052;-72
2022/10/17 03:07:32;;;;;;;11.35;7.20;;;12.10;99.90;;;;;;5031267;28;20052;-72
2022/10/17 03:09:58;;;;;;;12.27;7.70;;;12.10;99.90;;;;;;5055728;28;20041;-72
2022/10/17 03:12:24;;;;;;;10.77;7.22;;;12.10;99.90;;;;;;5028352;28;20385;-72
2022/10/17 03:14:49;;;;;;;13.73;7.43;;;12.10;99.90;;;;;;5048673;28;20041;-72
2022/10/17 03:17:15;;;;;;;12.10;7.82;;;12.10;99.90;;;;;;5031954;28;20045;-72
2022/10/17 03:19:40;;;;;;;13.27;7.90;;;12.10;99.90;;;;;;5072691;28;20155;-72
2022/10/17 03:22:06;;;;;;;12.18;7.47;;;12.20;99.90;;;;;;5046754;28;20041;-72
2022/10/17 03:24:32;;;;;;;13.90;8.30;;;12.20;99.90;;;;;;5046322;28;20044;-72
2022/10/17 03:26:57;;;;;;;16.35;8.55;;;12.30;99.90;;;;;;5032072;28;20431;-72
2022/10/17 03:29:23;;;;;;;11.93;8.25;;;12.20;99.90;;;;;;5046398;28;20045;-72
2022/10/17 03:31:48;;;;;;;13.80;8.52;;;12.20;99.90;;;;;;5045578;28;20045;-72
2022/10/17 03:34:17;;;;;;;13.80;9.13;;;12.20;99.90;;;;;;5030616;28;20049;-72
2022/10/17 03:36:43;;;;;;;11.75;9.18;;;12.20;99.90;;;;;;5038026;28;20048;-73
2022/10/17 03:39:09;;;;;;;14.27;8.45;;;12.40;99.90;;;;;;5047453;28;20053;-73
2022/10/17 03:41:35;;;;;;;11.18;9.10;;;12.20;99.90;;;;;;5053605;28;20048;-73
2022/10/17 03:44:00;;;;;;;14.48;9.68;;;12.20;99.90;;;;;;5034978;28;20099;-72
2022/10/17 03:46:26;;;;;;;13.10;9.80;;;12.20;99.90;;;;;;5040513;28;20122;-73
2022/10/17 03:48:52;;;;;;;16.73;10.02;;;12.20;99.90;;;;;;5048166;28;20102;-72
2022/10/17 03:51:18;;;;;;;12.15;9.65;;;12.40;99.90;;;;;;5035399;28;20045;-72
2022/10/17 03:53:44;;;;;;;14.82;9.82;;;12.20;99.90;;;;;;5057114;28;20408;-73
2022/10/17 03:56:15;;;;;;;11.65;9.88;;;12.20;99.90;;;;;;5027713;28;20048;-73
2022/10/17 03:58:40;;;;;;;14.00;9.68;;;12.10;99.90;;;;;;5045650;28;20049;-72
2022/10/17 04:01:08;;;;;;;14.82;9.75;;;12.20;99.90;;;;;;5051803;28;20048;-72
2022/10/17 04:03:34;;;;;;;14.65;10.70;;;12.20;99.90;;;;;;5037150;28;20152;-73
2022/10/17 04:06:00;;;;;;;17.90;10.45;;;12.20;99.90;;;;;;5052996;28;20053;-73
2022/10/17 04:08:27;;;;;;;16.50;9.57;;;12.10;99.90;;;;;;5032765;28;20072;-73
2022/10/17 04:10:56;;;;;;;17.30;10.35;;;12.00;99.90;;;;;;5048558;28;20052;-73
2022/10/17 04:13:22;;;;;;;17.25;10.52;;;12.00;99.90;;;;;;5051607;28;20551;-73
2022/10/17 04:16:00;;;;;;;16.05;10.70;;;12.00;99.90;;;;;;5051469;28;20147;-73
2022/10/17 04:18:26;;;;;;;17.25;11.18;;;12.00;99.90;;;;;;5032578;28;20714;-73
2022/10/17 04:20:53;;;;;;;15.07;10.95;;;11.90;99.90;;;;;;5052286;28;20793;-73
2022/10/17 04:23:19;;;;;;;17.55;11.18;;;12.10;99.90;;;;;;5049810;28;20041;-73
2022/10/17 04:25:45;;;;;;;18.42;12.40;;;12.10;99.90;;;;;;5050123;28;20049;-73
2022/10/17 04:28:11;;;;;;;14.77;12.18;;;12.10;99.90;;;;;;5034418;28;20059;-72
2022/10/17 04:30:37;;;;;;;16.33;12.45;;;12.10;99.90;;;;;;5052963;28;20082;-73
2022/10/17 04:33:02;;;;;;;19.20;12.55;;;12.10;99.90;;;;;;5054820;28;20461;-72
2022/10/17 04:35:28;;;;;;;17.00;12.80;;;12.10;99.90;;;;;;5050557;28;21200;-73
2022/10/17 04:37:54;;;;;;;21.15;13.48;;;12.20;99.90;;;;;;5032765;28;20066;-73
2022/10/17 04:40:19;;;;;;;17.77;13.48;;;12.20;99.90;;;;;;5046651;28;20152;-73
2022/10/17 04:42:45;;;;;;;19.05;13.50;;;12.20;99.90;;;;;;5027650;28;20080;-73
2022/10/17 04:45:11;;;;;;;21.70;13.60;;;12.10;99.90;;;;;;5050157;28;20155;-72
2022/10/17 04:47:37;;;;;;;17.90;13.35;;;12.30;99.90;;;;;;5030656;28;20086;-73
2022/10/17 04:50:03;;;;;;;21.17;14.93;;;12.30;99.90;;;;;;5045280;28;20572;-72
2022/10/17 04:52:29;;;;;;;23.90;15.88;;;12.40;99.90;;;;;;5038374;28;20044;-72
2022/10/17 04:54:55;;;;;;;21.00;14.98;;;12.40;99.90;;;;;;5052647;28;20048;-73
2022/10/17 04:57:21;;;;;;;22.48;15.88;;;12.50;99.90;;;;;;5026707;28;20049;-73
2022/10/17 04:59:46;;;;;;;20.15;15.70;;;12.50;99.90;;;;;;5044106;28;20088;-73
2022/10/17 05:02:12;;;;;;;20.35;15.95;;;12.60;99.90;;;;;;5042523;28;20041;-72
2022/10/17 05:04:37;;;;;;;22.80;15.75;;;12.60;99.90;;;;;;5049533;28;20059;-73
2022/10/17 05:07:03;;;;;;;21.73;16.98;;;12.70;99.90;;;;;;5026222;28;20046;-72
2022/10/17 05:09:29;;;;;;;23.13;15.68;;;12.70;99.90;;;;;;5045579;28;20044;-73
2022/10/17 05:11:55;;;;;;;26.42;18.25;;;12.70;99.90;;;;;;5045430;28;20056;-73
2022/10/17 05:14:20;;;;;;;24.73;18.25;;;12.90;99.90;;;;;;5026600;28;20054;-73
2022/10/17 05:16:46;;;;;;;20.83;16.65;;;12.80;99.90;;;;;;5012947;28;20420;-73
2022/10/17 05:19:12;;;;;;;24.08;17.02;;;12.70;99.90;;;;;;5044151;28;20046;-72
2022/10/17 05:21:38;;;;;;;27.05;18.25;;;13.00;99.90;;;;;;5045669;28;20053;-73
2022/10/17 05:24:08;;;;;;;26.60;19.02;;;13.00;99.90;;;;;;5044873;28;20095;-72
2022/10/17 05:26:33;;;;;;;27.33;17.85;;;13.00;99.90;;;;;;5031268;28;20826;-73
2022/10/17 05:29:01;;;;;;;24.88;18.83;;;13.00;99.90;;;;;;5043049;28;20045;-73
2022/10/17 05:31:27;;;;;;;26.88;17.92;;;13.10;99.90;;;;;;5058408;28;20451;-73
2022/10/17 05:33:53;;;;;;;22.75;17.77;;;13.10;99.90;;;;;;5045786;28;20057;-73
2022/10/17 05:36:19;;;;;;;27.40;18.20;;;13.10;99.90;;;;;;5016544;28;20048;-73
2022/10/17 05:38:49;;;;;;;23.20;17.60;;;13.20;99.90;;;;;;5005565;28;20047;-73
2022/10/17 05:41:15;;;;;;;23.27;16.80;;;13.10;99.90;;;;;;5043133;28;20068;-73
2022/10/17 05:43:41;;;;;;;30.23;17.98;;;13.20;99.90;;;;;;5043737;28;20045;-73
2022/10/17 05:46:08;;;;;;;24.23;18.52;;;13.20;99.90;;;;;;5040990;28;20049;-73
2022/10/17 05:48:34;;;;;;;24.45;18.35;;;13.20;99.90;;;;;;5028963;28;20459;-73
2022/10/17 05:51:06;;;;;;;27.52;19.75;;;13.30;99.90;;;;;;5040284;28;20053;-73
2022/10/17 05:53:38;;;;;;;31.15;19.65;;;13.20;99.90;;;;;;5055182;28;20075;-73
2022/10/17 05:56:07;;;;;;;27.33;20.17;;;13.30;99.90;;;;;;5041754;28;20052;-72
2022/10/17 05:58:36;;;;;;;29.13;20.30;;;13.30;99.90;;;;;;5032089;28;20496;-73
2022/10/17 06:01:04;;;;;;;29.95;20.25;;;13.40;99.90;;;;;;5041806;28;20120;-72
2022/10/17 06:03:30;;;;;;;31.77;20.65;;;13.50;99.90;;;;;;5040308;28;20045;-73
2022/10/17 06:05:56;;;;;;;30.65;20.15;;;13.60;99.90;;;;;;5039047;28;20088;-73
2022/10/17 06:08:22;;;;;;;29.88;19.58;;;13.60;99.90;;;;;;5024560;28;20037;-73
2022/10/17 06:10:51;;;;;;;30.23;20.67;;;13.60;99.90;;;;;;5041733;28;20056;-73
2022/10/17 06:13:17;;;;;;;26.65;20.15;;;13.70;99.90;;;;;;5040961;28;20045;-73
2022/10/17 06:15:43;;;;;;;29.45;21.35;;;13.70;99.90;;;;;;5039841;28;20060;-73
2022/10/17 06:18:10;;;;;;;29.92;20.80;;;13.80;99.90;;;;;;5010055;28;20136;-73
2022/10/17 06:20:36;;;;;;;27.92;20.27;;;13.90;99.90;;;;;;5041047;28;20049;-73
2022/10/17 06:23:02;;;;;;;24.83;20.08;;;13.90;99.90;;;;;;5043519;28;20045;-73
2022/10/17 06:25:32;;;;;;;27.55;19.95;;;13.90;99.90;;;;;;5040696;28;20068;-73
2022/10/17 06:27:58;;;;;;;26.50;19.10;;;13.90;99.90;;;;;;5026005;28;20098;-73
2022/10/17 06:30:24;;;;;;;25.65;18.88;;;14.00;99.90;;;;;;5038791;28;20124;-73
2022/10/17 06:32:51;;;;;;;25.55;18.73;;;13.90;99.90;;;;;;5041074;28;20053;-73
2022/10/17 06:35:17;;;;;;;26.23;19.15;;;13.90;99.90;;;;;;5013170;28;20179;-73
2022/10/17 06:37:43;;;;;;;24.42;19.10;;;13.90;99.90;;;;;;5003645;28;20110;-73
2022/10/17 06:40:11;;;;;;;28.17;19.67;;;13.90;99.90;;;;;;5022489;28;21007;-73
2022/10/17 06:42:37;;;;;;;25.10;18.90;;;14.00;99.90;;;;;;5002425;28;20150;-74
2022/10/17 06:45:04;;;;;;;21.15;17.60;;;14.00;99.90;;;;;;5021509;28;20072;-73
2022/10/17 06:47:29;;;;;;;23.73;18.30;;;14.00;99.90;;;;;;5019083;28;20463;-74
2022/10/17 06:49:55;;;;;;;26.65;19.05;;;14.10;99.90;;;;;;4979682;28;20054;-73
2022/10/17 06:52:21;;;;;;;22.40;18.20;;;13.90;99.90;;;;;;4949178;28;20951;-74
2022/10/17 06:54:46;;;;;;;27.88;18.85;;;14.00;99.90;;;;;;4946896;28;20105;-74
2022/10/17 06:57:12;;;;;;;25.83;18.30;;;14.00;99.90;;;;;;4932021;28;20048;-74
2022/10/17 06:59:38;;;;;;;22.13;17.45;;;14.00;99.90;;;;;;4938194;28;20052;-73
2022/10/17 07:02:04;;;;;;;23.67;17.23;;;14.10;99.90;;;;;;4942382;28;20068;-75
2022/10/17 07:04:30;;;;;;;25.90;17.85;;;14.00;99.90;;;;;;4942893;28;21242;-73
2022/10/17 07:06:56;;;;;;;21.65;17.75;;;14.00;99.90;;;;;;4933631;28;21143;-74
2022/10/17 07:09:23;;;;;;;22.83;17.38;;;14.10;99.90;;;;;;4938114;28;20049;-74
2022/10/17 07:11:48;;;;;;;22.73;17.15;;;14.10;99.90;;;;;;4952156;28;20052;-74
2022/10/17 07:14:14;;;;;;;25.65;18.30;;;14.20;99.90;;;;;;4961039;28;20044;-74
2022/10/17 07:16:40;;;;;;;25.00;18.25;;;14.20;99.90;;;;;;4977151;28;20485;-74
2022/10/17 07:19:05;;;;;;;30.75;19.48;;;14.30;99.90;;;;;;4999377;28;20048;-73
2022/10/17 07:21:31;;;;;;;26.90;18.25;;;14.20;99.90;;;;;;4985039;28;20139;-74
2022/10/17 07:23:57;;;;;;;23.98;18.42;;;14.40;99.90;;;;;;4980376;28;20048;-74
2022/10/17 07:26:23;;;;;;;25.48;17.80;;;14.30;99.90;;;;;;4992463;28;20081;-74
2022/10/17 07:28:52;;;;;;;24.17;18.15;;;14.40;99.90;;;;;;4999620;28;20554;-74
2022/10/17 07:31:19;;;;;;;25.75;17.77;;;14.50;99.90;;;;;;5003435;28;20044;-73
2022/10/17 07:33:45;;;;;;;22.48;16.35;;;14.60;99.90;;;;;;5000420;28;20401;-74
2022/10/17 07:36:12;;;;;;;21.77;16.88;;;14.60;99.90;;;;;;5010309;28;20041;-74
2022/10/17 07:38:38;;;;;;;22.52;16.02;;;14.60;99.90;;;;;;5001770;28;20053;-74
2022/10/17 07:41:06;;;;;;;20.92;15.90;;;14.70;99.90;;;;;;5006050;28;20139;-74
2022/10/17 07:43:32;;;;;;;21.50;16.10;;;14.70;99.90;;;;;;5013804;28;20079;-74
2022/10/17 07:46:00;;;;;;;24.67;16.52;;;14.80;99.90;;;;;;5018556;28;20045;-74
2022/10/17 07:48:25;;;;;;;24.42;15.85;;;14.90;99.90;;;;;;4988400;28;20055;-74
2022/10/17 07:50:51;;;;;;;21.02;15.38;;;14.90;99.90;;;;;;4997868;28;20636;-73
2022/10/17 07:53:17;;;;;;;27.65;19.33;;;15.00;99.90;;;;;;4996645;28;20288;-74
2022/10/17 07:55:47;;;;;;;25.05;17.50;;;15.10;99.90;;;;;;4999495;28;20054;-74
2022/10/17 07:58:13;;;;;;;24.10;16.50;;;15.00;99.90;;;;;;4998284;28;20571;-74
2022/10/17 08:00:39;;;;;;;20.25;15.25;;;14.90;99.90;;;;;;5010078;28;20411;-74
2022/10/17 08:03:05;;;;;;;24.38;17.58;;;15.20;99.90;;;;;;5013941;28;20700;-74
2022/10/17 08:05:31;;;;;;;24.13;15.95;;;15.30;99.90;;;;;;5003173;28;20407;-74
2022/10/17 08:07:56;;;;;;;24.17;17.15;;;15.50;99.90;;;;;;4997697;28;20139;-74
2022/10/17 08:10:27;;;;;;;23.92;16.08;;;15.50;99.90;;;;;;4993325;28;20377;-73
2022/10/17 08:12:57;;;;;;;19.95;15.35;;;15.60;99.90;;;;;;5007670;28;21208;-74
2022/10/17 08:15:24;;;;;;;19.30;13.15;;;15.70;99.90;;;;;;5008369;28;20129;-74
2022/10/17 08:17:50;;;;;;;20.98;16.60;;;15.80;99.90;;;;;;4983853;28;20735;-74
2022/10/17 08:20:16;;;;;;;19.40;14.95;;;15.80;99.90;;;;;;4996336;28;20072;-74
2022/10/17 08:22:41;;;;;;;17.38;12.35;;;15.90;99.90;;;;;;4994010;28;20045;-73
2022/10/17 08:25:08;;;;;;;16.33;13.05;;;15.90;99.90;;;;;;5011333;28;20092;-73
2022/10/17 08:27:34;;;;;;;17.73;13.18;;;15.90;99.90;;;;;;4991311;28;20060;-74
2022/10/17 08:30:00;;;;;;;15.25;11.98;;;16.10;99.90;;;;;;4996611;28;20830;-74
2022/10/17 08:32:28;;;;;;;13.40;11.55;;;16.00;99.90;;;;;;4995573;28;20422;-75
2022/10/17 08:34:55;;;;;;;17.77;12.15;;;16.10;99.90;;;;;;5021267;28;20441;-75
2022/10/17 08:37:22;;;;;;;14.85;11.57;;;16.20;99.90;;;;;;4995931;28;20045;-74
2022/10/17 08:39:48;;;;;;;20.00;12.15;;;16.10;99.90;;;;;;5010211;28;20049;-74
2022/10/17 08:42:47;;;;;;;16.20;12.43;;;16.30;99.90;;;;;;4994731;28;20404;-74
2022/10/17 08:45:39;;;;;;;16.60;12.20;;;16.20;99.90;;;;;;5014593;28;20527;-74
2022/10/17 08:48:11;;;;;;;17.73;11.52;;;16.40;99.90;;;;;;4966775;28;20052;-74
2022/10/17 08:50:39;;;;;;;15.27;11.45;;;16.50;99.90;;;;;;5009083;28;20099;-73
2022/10/17 08:53:24;;;;;;;14.43;11.55;;;16.50;99.90;;;;;;5014562;28;20147;-74
2022/10/17 08:55:52;;;;;;;15.10;10.80;;;16.50;99.90;;;;;;5011901;28;20052;-75
2022/10/17 08:58:24;;;;;;;14.45;10.38;;;16.40;99.90;;;;;;4996909;28;20488;-74
2022/10/17 09:01:05;;;;;;;12.27;10.35;;;16.50;99.90;;;;;;5011416;28;20555;-74
2022/10/17 09:04:08;;;;;;;15.68;10.27;;;16.50;99.90;;;;;;5005877;28;20041;-74
2022/10/17 09:06:38;;;;;;;13.88;11.57;;;16.60;99.90;;;;;;4999829;28;20044;-74
2022/10/17 09:09:28;;;;;;;15.90;10.05;;;16.70;99.90;;;;;;5009419;28;20047;-74
2022/10/17 09:11:57;;;;;;;15.17;9.57;;;16.70;99.90;;;;;;5013153;28;20068;-73
2022/10/17 09:14:44;;;;;;;14.20;9.18;;;16.70;99.90;;;;;;5009501;28;20306;-73
2022/10/17 09:17:42;;;;;;;12.55;9.02;;;16.80;99.90;;;;;;4996507;28;20045;-74
2022/10/17 09:20:18;;;;;;;13.85;9.02;;;16.70;99.90;;;;;;5028640;28;20155;-74
2022/10/17 09:22:48;;;;;;;15.73;9.77;;;16.80;99.90;;;;;;5023799;28;20079;-74
2022/10/17 09:25:17;;;;;;;11.13;9.40;;;16.80;99.90;;;;;;5014885;28;20049;-73
2022/10/17 09:27:50;;;;;;;11.00;9.60;;;16.90;99.90;;;;;;4999001;28;20052;-74
2022/10/17 09:30:27;;;;;;;15.07;10.10;;;16.80;99.90;;;;;;5013064;28;20052;-74
2022/10/17 09:32:53;;;;;;;14.98;10.02;;;16.90;99.90;;;;;;5008633;28;20053;-74
2022/10/17 09:35:20;;;;;;;13.25;9.52;;;16.90;99.90;;;;;;5011169;28;20047;-74
2022/10/17 09:37:46;;;;;;;11.60;9.75;;;16.80;99.90;;;;;;4998745;28;20076;-75
2022/10/17 09:40:24;;;;;;;14.23;9.90;;;16.80;99.90;;;;;;5010391;28;20787;-74
2022/10/17 09:42:50;;;;;;;16.73;10.65;;;16.70;99.90;;;;;;5011661;28;20887;-73
2022/10/17 09:45:18;;;;;;;19.80;10.90;;;16.70;99.90;;;;;;5011392;28;20049;-73
2022/10/17 09:48:10;;;;;;;14.95;10.50;;;16.70;99.90;;;;;;4999096;28;20048;-74
2022/10/17 09:50:36;;;;;;;18.17;11.02;;;16.70;99.90;;;;;;5011500;28;20077;-74
2022/10/17 09:53:29;;;;;;;16.10;11.65;;;16.70;99.90;;;;;;5005898;28;20048;-74
2022/10/17 09:55:58;;;;;;;16.50;12.68;;;16.50;99.90;;;;;;5013589;28;20824;-73
2022/10/17 09:58:47;;;;;;;15.20;12.48;;;16.50;99.90;;;;;;4999211;28;20044;-73
2022/10/17 10:01:18;;;;;;;17.13;13.32;;;16.30;99.90;;;;;;5010500;28;20055;-74
2022/10/17 10:03:44;;;;;;;22.83;13.48;;;16.30;99.90;;;;;;4990920;28;20450;-74
2022/10/17 10:06:19;;;;;;;23.42;13.95;;;16.30;99.90;;;;;;5005708;28;20067;-74
2022/10/17 10:08:48;;;;;;;19.13;13.50;;;16.30;99.90;;;;;;5009197;28;20049;-74
2022/10/17 10:11:14;;;;;;;16.63;13.30;;;16.20;99.90;;;;;;5009375;28;20096;-74
2022/10/17 10:13:42;;;;;;;25.38;14.00;;;16.20;99.90;;;;;;5007308;28;20079;-75
2022/10/17 10:16:30;;;;;;;17.63;14.18;;;16.20;99.90;;;;;;5004133;28;20049;-75
2022/10/17 10:18:57;;;;;;;22.70;15.20;;;16.10;99.90;;;;;;5010109;28;20053;-75
2022/10/17 10:21:25;;;;;;;20.08;14.10;;;16.10;99.90;;;;;;5012920;28;20133;-75
2022/10/17 10:24:10;;;;;;;22.10;14.77;;;16.20;99.90;;;;;;5008547;28;20168;-75
2022/10/17 10:26:42;;;;;;;21.20;14.27;;;16.00;99.90;;;;;;4999934;28;20075;-75
2022/10/17 10:29:29;;;;;;;;;;;16.10;99.90;;;;;;5010658;28;20505;-75
2022/10/17 10:32:09;;;;;;;21.70;14.98;;;16.10;99.90;;;;;;4981939;28;19982;-74
2022/10/17 10:34:38;;;;;;;28.45;15.95;;;16.00;99.90;;;;;;5017769;28;20044;-74
2022/10/17 10:37:14;;;;;;;22.25;15.38;;;16.00;99.90;;;;;;4997144;28;20090;-74
2022/10/17 10:39:46;;;;;;;21.92;15.07;;;16.00;99.90;;;;;;5011194;28;20087;-75
2022/10/17 10:42:28;;;;;;;28.27;16.63;;;16.00;99.90;;;;;;5012682;28;20057;-74
2022/10/17 10:45:00;;;;;;;23.58;15.50;;;16.00;99.90;;;;;;5010045;28;20063;-74
2022/10/17 10:47:30;;;;;;;21.05;14.98;;;16.10;99.90;;;;;;4999876;28;20045;-75
2022/10/17 10:50:22;;;;;;;25.63;15.48;;;16.10;99.90;;;;;;5007524;28;20048;-74
2022/10/17 10:52:57;;;;;;;23.65;15.73;;;16.10;99.90;;;;;;5008108;28;20061;-74
2022/10/17 10:55:31;;;;;;;20.05;14.73;;;16.10;99.90;;;;;;5014900;28;20849;-74
2022/10/17 10:58:05;;;;;;;23.38;14.90;;;16.10;99.90;;;;;;5000564;28;20052;-74
2022/10/17 11:00:33;;;;;;;22.92;15.82;;;16.10;99.90;;;;;;5009502;28;20057;-74
2022/10/17 11:03:20;;;;;;;23.30;15.50;;;16.10;99.90;;;;;;5010061;28;20049;-75
2022/10/17 11:05:52;;;;;;;29.10;17.40;;;16.10;99.90;;;;;;5012190;28;20078;-75
2022/10/17 11:08:37;;;;;;;29.08;16.75;;;16.20;99.90;;;;;;4998165;28;20037;-75
2022/10/17 11:11:38;;;;;;;25.48;16.35;;;16.20;99.90;;;;;;5008654;28;20052;-75
2022/10/17 11:14:30;;;;;;;32.80;17.48;;;16.20;99.90;;;;;;4995004;28;20044;-75
2022/10/17 11:17:09;;;;;;;31.75;16.63;;;16.30;99.90;;;;;;4986345;28;20041;-75
2022/10/17 11:19:44;;;;;;;31.08;17.70;;;16.20;99.90;;;;;;5001631;28;20081;-75
2022/10/17 11:22:28;;;;;;;28.58;17.15;;;16.20;99.90;;;;;;5000548;28;20049;-74
2022/10/17 11:24:59;;;;;;;23.83;16.45;;;16.30;99.90;;;;;;4998628;28;20052;-74
2022/10/17 11:27:28;;;;;;;25.88;16.52;;;16.20;99.90;;;;;;4995971;28;20041;-75
2022/10/17 11:29:54;;;;;;;26.55;16.38;;;16.20;99.90;;;;;;5009030;28;20049;-75
2022/10/17 11:32:30;;;;;;;24.83;16.65;;;16.20;99.90;;;;;;5012372;28;20064;-75
2022/10/17 11:35:27;;;;;;;23.85;16.25;;;16.20;99.90;;;;;;5014089;28;21606;-74
2022/10/17 11:38:27;;;;;;;24.80;16.17;;;16.20;99.90;;;;;;4977858;28;20083;-75
2022/10/17 11:40:56;;;;;;;23.98;15.77;;;16.20;99.90;;;;;;5010776;28;20061;-74
2022/10/17 11:43:34;;;;;;;20.80;14.73;;;16.20;99.90;;;;;;5010456;28;20048;-75
2022/10/17 11:46:22;;;;;;;20.42;14.63;;;16.20;99.90;;;;;;5013041;28;20059;-74
2022/10/17 11:49:11;;;;;;;22.40;14.88;;;16.20;99.90;;;;;;5009099;28;20566;-75
2022/10/17 11:51:51;;;;;;;26.52;14.55;;;16.20;99.90;;;;;;4996662;28;20049;-75
2022/10/17 11:54:34;;;;;;;19.73;13.60;;;16.20;99.90;;;;;;5007469;28;20049;-75
2022/10/17 11:57:28;;;;;;;20.58;13.80;;;16.20;99.90;;;;;;4997056;28;20076;-75
2022/10/17 12:00:16;;;;;;;18.20;11.63;;;16.10;99.90;;;;;;5005777;28;20079;-75
2022/10/17 12:02:59;;;;;;;16.67;11.35;;;16.20;99.90;;;;;;5010417;28;20091;-75
2022/10/17 12:05:54;;;;;;;14.18;10.57;;;16.30;99.90;;;;;;5013370;28;20432;-75
2022/10/17 12:08:55;;;;;;;13.75;10.05;;;16.20;99.90;;;;;;5001406;28;20455;-75
2022/10/17 12:11:33;;;;;;;14.88;9.43;;;16.20;99.90;;;;;;5010914;28;20424;-75
2022/10/17 12:13:59;;;;;;;11.40;8.80;;;16.10;99.90;;;;;;5008947;28;20086;-75
2022/10/17 12:16:28;;;;;;;9.75;7.93;;;16.10;99.90;;;;;;5003058;28;20060;-75
2022/10/17 12:19:00;;;;;;;11.63;8.13;;;16.10;99.90;;;;;;5011808;28;20049;-75
2022/10/17 12:21:26;;;;;;;13.90;8.77;;;16.20;99.90;;;;;;5010383;28;20045;-75
2022/10/17 12:23:53;;;;;;;13.00;8.05;;;16.30;99.90;;;;;;5011161;28;20492;-75
2022/10/17 12:26:27;;;;;;;9.18;6.82;;;16.30;99.90;;;;;;5002787;28;20408;-75
2022/10/17 12:28:55;;;;;;;11.00;6.22;;;16.30;99.90;;;;;;5012138;28;21202;-75
2022/10/17 12:31:26;;;;;;;10.02;6.60;;;16.40;99.90;;;;;;5014786;28;20114;-75
2022/10/17 12:33:59;;;;;;;;;;;16.30;99.90;;;;;;5012047;28;20053;-76
2022/10/17 12:36:25;;;;;;;11.50;6.97;;;16.30;99.90;;;;;;5003918;28;20380;-75
2022/10/17 12:39:02;;;;;;;8.77;7.03;;;16.30;99.90;;;;;;5013366;28;20053;-75
2022/10/17 12:41:37;;;;;;;11.05;7.25;;;16.40;99.90;;;;;;4997288;28;20053;-75
2022/10/17 12:44:12;;;;;;;10.63;7.72;;;16.30;99.90;;;;;;5009859;28;20052;-75
2022/10/17 12:46:50;;;;;;;11.02;7.72;;;16.30;99.90;;;;;;4999393;28;20048;-75
2022/10/17 12:49:41;;;;;;;10.57;7.78;;;16.30;99.90;;;;;;5011079;28;21104;-75
2022/10/17 12:52:31;;;;;;;12.73;8.90;;;16.30;99.90;;;;;;5009242;28;20053;-76
2022/10/17 12:55:02;;;;;;;10.32;7.13;;;16.30;99.90;;;;;;4996101;28;20079;-75